Terminal Aerodrome Forecast
Issued by NWS Billings, MT

Home | Current Version | Previous Version | Graphics & Text | Print | Product List | Glossary On
Versions: 1 2 3 4 5 6 7 8 9 10 11 12 13 14 15 16 17 18 19 20 21 22 23 24 25
000
FTUS45 KBYZ 281610 AAB
TAFMLS
TAF AMD
KMLS 281610Z 2816/2912 30004KT P6SM -RA BKN015 BKN035 OVC060
     FM281800 05006KT P6SM -RA SCT015 OVC025
     FM290300 10005KT P6SM VCSH SCT008 OVC012
     FM290600 10005KT P6SM BKN004 OVC008=

USA.gov is the U.S. government's official web portal to all federal, state and local government web resources and services.